Sterling, Michigan
Current Conditions -  °F | °C
As of 12:52 AM on Monday 20 Oct 2014 (Local Time) from KIKW Reporting Station
Overcast Overcast  
Wind Chill: 46°   Ceiling: 4900
Heat Index: 49°   Visibility: 10mi
Dew Point: 40°   Wind: 7mph
Humidity: 70%   Direction: 200°SSW
Pressure: 29.88"   Gusts: NA
Location:  44.03°N, 84.02°W
Report Text: KIKW 200452Z AUTO 20006KT 10SM BKN049 OVC070 10/04 A2988 RMK AO2 T00950042
Loading
Personal Weather Stations






























Interactive Weather Map
Tropical Storm Tracking
New forecast layout! Learn more

10-Day Weather Forecast

Advertisements
Track Severe Weather on mobile